Terminal Aerodrome Forecast
Issued by NWS Sterling, VA

Current Version | Previous Version | Text Only | Print | Product List | Glossary On
Versions: 1 2 3 4 5 6 7 8 9 10 11 12 13 14 15 16 17 18 19 20 21 22 23 24 25 26 27
000
FTUS41 KLWX 021100
TAFIAD
TAF
KIAD 021131Z 0212/0318 00000KT 2SM BR BKN012 OVC030
     FM021400 VRB03KT P6SM SCT010 BKN040
     FM021800 VRB03KT P6SM SCT050 SCT250
     FM030600 VRB03KT 5SM BR BKN120
     FM031100 14005KT P6SM SCT008 BKN035
     FM031600 15010KT P6SM BKN035=

USA.gov is the U.S. government's official web portal to all federal, state and local government web resources and services.